sensor_id;sensor_type;location;lat;lon;timestamp;P1;durP1;ratioP1;P2;durP2;ratioP2
54197;SDS011;40105;52.366;17.000;2022-11-03T00:04:56;34.13;;;11.27;;
54197;SDS011;40105;52.366;17.000;2022-11-03T00:11:52;36.78;;;10.38;;
54197;SDS011;40105;52.366;17.000;2022-11-03T00:15:17;31.60;;;11.00;;
54197;SDS011;40105;52.366;17.000;2022-11-03T00:18:41;29.02;;;10.80;;
54197;SDS011;40105;52.366;17.000;2022-11-03T00:22:04;26.77;;;9.93;;
54197;SDS011;40105;52.366;17.000;2022-11-03T00:25:28;22.40;;;9.80;;
54197;SDS011;40105;52.366;17.000;2022-11-03T00:28:54;26.77;;;8.45;;
54197;SDS011;40105;52.366;17.000;2022-11-03T00:32:18;28.55;;;8.95;;
54197;SDS011;40105;52.366;17.000;2022-11-03T00:35:41;29.98;;;9.43;;
54197;SDS011;40105;52.366;17.000;2022-11-03T00:39:06;26.55;;;7.60;;
54197;SDS011;40105;52.366;17.000;2022-11-03T00:42:31;19.55;;;8.05;;
54197;SDS011;40105;52.366;17.000;2022-11-03T00:45:55;18.85;;;9.20;;
54197;SDS011;40105;52.366;17.000;2022-11-03T00:49:20;37.33;;;9.30;;
54197;SDS011;40105;52.366;17.000;2022-11-03T00:52:44;18.42;;;7.65;;
54197;SDS011;40105;52.366;17.000;2022-11-03T00:56:12;19.92;;;8.40;;
54197;SDS011;40105;52.366;17.000;2022-11-03T00:59:36;14.30;;;6.50;;
54197;SDS011;40105;52.366;17.000;2022-11-03T01:03:00;22.95;;;8.15;;
54197;SDS011;40105;52.366;17.000;2022-11-03T01:06:43;27.63;;;7.13;;
54197;SDS011;40105;52.366;17.000;2022-11-03T01:10:08;19.35;;;6.65;;
54197;SDS011;40105;52.366;17.000;2022-11-03T01:13:59;18.42;;;8.00;;
54197;SDS011;40105;52.366;17.000;2022-11-03T01:17:24;14.82;;;5.78;;
54197;SDS011;40105;52.366;17.000;2022-11-03T01:20:53;29.73;;;6.85;;
54197;SDS011;40105;52.366;17.000;2022-11-03T01:24:17;17.92;;;6.55;;
54197;SDS011;40105;52.366;17.000;2022-11-03T01:27:40;19.77;;;6.68;;
54197;SDS011;40105;52.366;17.000;2022-11-03T01:31:07;19.00;;;6.57;;
54197;SDS011;40105;52.366;17.000;2022-11-03T01:34:32;17.38;;;6.03;;
54197;SDS011;40105;52.366;17.000;2022-11-03T01:37:56;15.82;;;6.05;;
54197;SDS011;40105;52.366;17.000;2022-11-03T01:41:22;13.75;;;6.05;;
54197;SDS011;40105;52.366;17.000;2022-11-03T01:44:46;22.48;;;6.65;;
54197;SDS011;40105;52.366;17.000;2022-11-03T01:48:11;14.57;;;6.82;;
54197;SDS011;40105;52.366;17.000;2022-11-03T01:51:36;17.08;;;5.65;;
54197;SDS011;40105;52.366;17.000;2022-11-03T01:55:08;19.30;;;5.80;;
54197;SDS011;40105;52.366;17.000;2022-11-03T01:58:34;14.85;;;5.88;;
54197;SDS011;40105;52.366;17.000;2022-11-03T02:01:59;27.10;;;7.10;;
54197;SDS011;40105;52.366;17.000;2022-11-03T02:05:24;16.48;;;5.57;;
54197;SDS011;40105;52.366;17.000;2022-11-03T02:08:51;11.82;;;5.28;;
54197;SDS011;40105;52.366;17.000;2022-11-03T02:12:16;15.73;;;5.68;;
54197;SDS011;40105;52.366;17.000;2022-11-03T02:15:47;19.92;;;6.35;;
54197;SDS011;40105;52.366;17.000;2022-11-03T02:26:26;18.45;;;6.70;;
54197;SDS011;40105;52.366;17.000;2022-11-03T02:29:50;18.13;;;6.20;;
54197;SDS011;40105;52.366;17.000;2022-11-03T02:33:21;28.65;;;8.15;;
54197;SDS011;40105;52.366;17.000;2022-11-03T02:37:17;15.07;;;6.15;;
54197;SDS011;40105;52.366;17.000;2022-11-03T02:40:44;17.08;;;5.65;;
54197;SDS011;40105;52.366;17.000;2022-11-03T02:44:15;24.33;;;5.95;;
54197;SDS011;40105;52.366;17.000;2022-11-03T02:47:41;14.25;;;5.68;;
54197;SDS011;40105;52.366;17.000;2022-11-03T02:51:05;24.67;;;6.10;;
54197;SDS011;40105;52.366;17.000;2022-11-03T02:54:40;12.38;;;5.53;;
54197;SDS011;40105;52.366;17.000;2022-11-03T03:02:02;12.25;;;5.40;;
54197;SDS011;40105;52.366;17.000;2022-11-03T03:05:29;15.07;;;6.15;;
54197;SDS011;40105;52.366;17.000;2022-11-03T03:09:16;12.15;;;4.40;;
54197;SDS011;40105;52.366;17.000;2022-11-03T03:12:45;15.43;;;5.80;;
54197;SDS011;40105;52.366;17.000;2022-11-03T03:16:17;13.77;;;6.00;;
54197;SDS011;40105;52.366;17.000;2022-11-03T03:19:48;11.07;;;5.25;;
54197;SDS011;40105;52.366;17.000;2022-11-03T03:23:35;13.30;;;5.70;;
54197;SDS011;40105;52.366;17.000;2022-11-03T03:30:39;15.43;;;6.22;;
54197;SDS011;40105;52.366;17.000;2022-11-03T03:34:05;13.68;;;5.40;;
54197;SDS011;40105;52.366;17.000;2022-11-03T03:37:31;14.82;;;5.25;;
54197;SDS011;40105;52.366;17.000;2022-11-03T03:40:58;12.93;;;6.00;;
54197;SDS011;40105;52.366;17.000;2022-11-03T03:44:22;15.25;;;5.75;;
54197;SDS011;40105;52.366;17.000;2022-11-03T03:47:46;15.98;;;5.85;;
54197;SDS011;40105;52.366;17.000;2022-11-03T03:51:11;16.73;;;5.18;;
54197;SDS011;40105;52.366;17.000;2022-11-03T03:54:35;13.07;;;5.10;;
54197;SDS011;40105;52.366;17.000;2022-11-03T03:58:09;10.88;;;4.43;;
54197;SDS011;40105;52.366;17.000;2022-11-03T04:01:34;15.52;;;6.20;;
54197;SDS011;40105;52.366;17.000;2022-11-03T04:04:58;15.85;;;4.93;;
54197;SDS011;40105;52.366;17.000;2022-11-03T04:08:22;24.45;;;6.63;;
54197;SDS011;40105;52.366;17.000;2022-11-03T04:11:46;14.32;;;6.15;;
54197;SDS011;40105;52.366;17.000;2022-11-03T04:15:28;13.30;;;6.57;;
54197;SDS011;40105;52.366;17.000;2022-11-03T04:19:11;13.75;;;6.35;;
54197;SDS011;40105;52.366;17.000;2022-11-03T04:22:54;13.23;;;6.43;;
54197;SDS011;40105;52.366;17.000;2022-11-03T04:26:18;17.27;;;5.68;;
54197;SDS011;40105;52.366;17.000;2022-11-03T04:29:56;11.88;;;5.47;;
54197;SDS011;40105;52.366;17.000;2022-11-03T04:33:20;27.35;;;7.00;;
54197;SDS011;40105;52.366;17.000;2022-11-03T04:36:44;16.15;;;7.05;;
54197;SDS011;40105;52.366;17.000;2022-11-03T04:40:12;12.10;;;6.25;;
54197;SDS011;40105;52.366;17.000;2022-11-03T04:43:40;19.88;;;6.32;;
54197;SDS011;40105;52.366;17.000;2022-11-03T04:47:08;16.50;;;7.10;;
54197;SDS011;40105;52.366;17.000;2022-11-03T04:50:48;17.92;;;6.38;;
54197;SDS011;40105;52.366;17.000;2022-11-03T04:54:14;14.20;;;4.82;;
54197;SDS011;40105;52.366;17.000;2022-11-03T04:57:39;16.52;;;5.80;;
54197;SDS011;40105;52.366;17.000;2022-11-03T05:01:03;9.98;;;4.53;;
54197;SDS011;40105;52.366;17.000;2022-11-03T05:04:27;17.55;;;5.03;;
54197;SDS011;40105;52.366;17.000;2022-11-03T05:07:52;9.15;;;5.03;;
54197;SDS011;40105;52.366;17.000;2022-11-03T05:14:50;17.02;;;6.03;;
54197;SDS011;40105;52.366;17.000;2022-11-03T05:18:19;13.90;;;5.53;;
54197;SDS011;40105;52.366;17.000;2022-11-03T05:21:44;16.35;;;6.60;;
54197;SDS011;40105;52.366;17.000;2022-11-03T05:29:03;15.43;;;5.90;;
54197;SDS011;40105;52.366;17.000;2022-11-03T05:32:36;12.15;;;5.10;;
54197;SDS011;40105;52.366;17.000;2022-11-03T05:36:42;13.07;;;5.82;;
54197;SDS011;40105;52.366;17.000;2022-11-03T05:39:51;16.48;;;5.68;;
54197;SDS011;40105;52.366;17.000;2022-11-03T05:43:17;11.30;;;6.03;;
54197;SDS011;40105;52.366;17.000;2022-11-03T05:46:57;15.30;;;5.90;;
54197;SDS011;40105;52.366;17.000;2022-11-03T05:50:23;23.35;;;6.55;;
54197;SDS011;40105;52.366;17.000;2022-11-03T05:53:59;14.07;;;5.55;;
54197;SDS011;40105;52.366;17.000;2022-11-03T05:57:24;20.48;;;7.15;;
54197;SDS011;40105;52.366;17.000;2022-11-03T06:00:53;18.40;;;7.15;;
54197;SDS011;40105;52.366;17.000;2022-11-03T06:04:18;18.38;;;7.63;;
54197;SDS011;40105;52.366;17.000;2022-11-03T06:07:43;24.50;;;7.82;;
54197;SDS011;40105;52.366;17.000;2022-11-03T06:11:08;13.93;;;6.35;;
54197;SDS011;40105;52.366;17.000;2022-11-03T06:14:34;19.20;;;7.53;;
54197;SDS011;40105;52.366;17.000;2022-11-03T06:17:59;18.65;;;7.93;;
54197;SDS011;40105;52.366;17.000;2022-11-03T06:21:24;21.67;;;8.88;;
54197;SDS011;40105;52.366;17.000;2022-11-03T06:24:49;17.60;;;7.38;;
54197;SDS011;40105;52.366;17.000;2022-11-03T06:28:16;18.27;;;7.22;;
54197;SDS011;40105;52.366;17.000;2022-11-03T06:31:42;20.63;;;9.02;;
54197;SDS011;40105;52.366;17.000;2022-11-03T06:35:07;21.45;;;7.25;;
54197;SDS011;40105;52.366;17.000;2022-11-03T06:38:56;19.60;;;7.38;;
54197;SDS011;40105;52.366;17.000;2022-11-03T06:42:24;18.55;;;7.28;;
54197;SDS011;40105;52.366;17.000;2022-11-03T06:45:52;14.93;;;6.60;;
54197;SDS011;40105;52.366;17.000;2022-11-03T06:49:32;14.88;;;7.07;;
54197;SDS011;40105;52.366;17.000;2022-11-03T06:52:57;19.45;;;7.68;;
54197;SDS011;40105;52.366;17.000;2022-11-03T06:56:27;22.42;;;8.40;;
54197;SDS011;40105;52.366;17.000;2022-11-03T06:59:51;24.27;;;9.18;;
54197;SDS011;40105;52.366;17.000;2022-11-03T07:03:20;25.25;;;8.95;;
54197;SDS011;40105;52.366;17.000;2022-11-03T07:06:46;24.45;;;9.48;;
54197;SDS011;40105;52.366;17.000;2022-11-03T07:10:10;33.60;;;10.20;;
54197;SDS011;40105;52.366;17.000;2022-11-03T07:13:44;23.73;;;8.80;;
54197;SDS011;40105;52.366;17.000;2022-11-03T07:17:15;19.27;;;9.35;;
54197;SDS011;40105;52.366;17.000;2022-11-03T07:20:44;23.27;;;9.00;;
54197;SDS011;40105;52.366;17.000;2022-11-03T07:24:19;25.77;;;9.60;;
54197;SDS011;40105;52.366;17.000;2022-11-03T07:27:45;20.42;;;8.82;;
54197;SDS011;40105;52.366;17.000;2022-11-03T07:31:15;19.98;;;9.27;;
54197;SDS011;40105;52.366;17.000;2022-11-03T07:34:45;25.48;;;10.85;;
54197;SDS011;40105;52.366;17.000;2022-11-03T07:38:15;24.00;;;12.35;;
54197;SDS011;40105;52.366;17.000;2022-11-03T07:41:40;29.20;;;11.65;;
54197;SDS011;40105;52.366;17.000;2022-11-03T07:45:08;32.55;;;12.50;;
54197;SDS011;40105;52.366;17.000;2022-11-03T07:48:48;35.85;;;11.35;;
54197;SDS011;40105;52.366;17.000;2022-11-03T07:52:18;37.53;;;10.00;;
54197;SDS011;40105;52.366;17.000;2022-11-03T07:55:46;25.35;;;9.02;;
54197;SDS011;40105;52.366;17.000;2022-11-03T07:59:19;28.00;;;10.70;;
54197;SDS011;40105;52.366;17.000;2022-11-03T08:06:10;37.58;;;11.63;;
54197;SDS011;40105;52.366;17.000;2022-11-03T08:09:34;30.65;;;10.73;;
54197;SDS011;40105;52.366;17.000;2022-11-03T08:12:58;28.70;;;11.35;;
54197;SDS011;40105;52.366;17.000;2022-11-03T08:16:21;30.75;;;10.93;;
54197;SDS011;40105;52.366;17.000;2022-11-03T08:19:45;24.55;;;9.13;;
54197;SDS011;40105;52.366;17.000;2022-11-03T08:23:09;31.90;;;9.00;;
54197;SDS011;40105;52.366;17.000;2022-11-03T08:26:33;28.23;;;10.02;;
54197;SDS011;40105;52.366;17.000;2022-11-03T08:29:57;20.98;;;10.30;;
54197;SDS011;40105;52.366;17.000;2022-11-03T08:33:25;26.48;;;9.85;;
54197;SDS011;40105;52.366;17.000;2022-11-03T08:36:49;35.80;;;11.05;;
54197;SDS011;40105;52.366;17.000;2022-11-03T08:40:13;24.73;;;9.82;;
54197;SDS011;40105;52.366;17.000;2022-11-03T08:43:37;22.30;;;10.43;;
54197;SDS011;40105;52.366;17.000;2022-11-03T08:47:00;25.35;;;10.63;;
54197;SDS011;40105;52.366;17.000;2022-11-03T08:50:24;20.83;;;10.27;;
54197;SDS011;40105;52.366;17.000;2022-11-03T08:53:48;35.70;;;9.32;;
54197;SDS011;40105;52.366;17.000;2022-11-03T08:57:12;32.97;;;11.18;;
54197;SDS011;40105;52.366;17.000;2022-11-03T09:00:36;27.15;;;10.90;;
54197;SDS011;40105;52.366;17.000;2022-11-03T09:04:00;36.88;;;12.68;;
54197;SDS011;40105;52.366;17.000;2022-11-03T09:07:23;26.75;;;11.50;;
54197;SDS011;40105;52.366;17.000;2022-11-03T09:10:47;39.95;;;12.50;;
54197;SDS011;40105;52.366;17.000;2022-11-03T09:14:11;27.88;;;11.77;;
54197;SDS011;40105;52.366;17.000;2022-11-03T09:17:35;26.60;;;10.18;;
54197;SDS011;40105;52.366;17.000;2022-11-03T09:20:59;26.08;;;11.35;;
54197;SDS011;40105;52.366;17.000;2022-11-03T09:24:24;29.83;;;10.25;;
54197;SDS011;40105;52.366;17.000;2022-11-03T09:27:48;21.45;;;9.98;;
54197;SDS011;40105;52.366;17.000;2022-11-03T09:31:13;18.83;;;8.77;;
54197;SDS011;40105;52.366;17.000;2022-11-03T09:34:37;22.30;;;8.07;;
54197;SDS011;40105;52.366;17.000;2022-11-03T09:38:01;17.27;;;8.77;;
54197;SDS011;40105;52.366;17.000;2022-11-03T09:41:24;19.27;;;8.88;;
54197;SDS011;40105;52.366;17.000;2022-11-03T09:44:48;22.90;;;7.72;;
54197;SDS011;40105;52.366;17.000;2022-11-03T09:48:12;15.38;;;7.30;;
54197;SDS011;40105;52.366;17.000;2022-11-03T09:51:37;17.60;;;8.40;;
54197;SDS011;40105;52.366;17.000;2022-11-03T09:55:01;18.08;;;8.35;;
54197;SDS011;40105;52.366;17.000;2022-11-03T09:58:25;19.77;;;7.88;;
54197;SDS011;40105;52.366;17.000;2022-11-03T10:01:49;18.75;;;8.68;;
54197;SDS011;40105;52.366;17.000;2022-11-03T10:05:15;20.98;;;9.25;;
54197;SDS011;40105;52.366;17.000;2022-11-03T10:08:41;18.40;;;7.45;;
54197;SDS011;40105;52.366;17.000;2022-11-03T10:12:07;14.57;;;5.97;;
54197;SDS011;40105;52.366;17.000;2022-11-03T10:15:33;18.08;;;6.63;;
54197;SDS011;40105;52.366;17.000;2022-11-03T10:18:57;12.20;;;6.43;;
54197;SDS011;40105;52.366;17.000;2022-11-03T10:22:21;24.25;;;6.22;;
54197;SDS011;40105;52.366;17.000;2022-11-03T10:25:46;13.18;;;5.32;;
54197;SDS011;40105;52.366;17.000;2022-11-03T10:32:40;14.50;;;5.85;;
54197;SDS011;40105;52.366;17.000;2022-11-03T10:39:45;15.02;;;4.15;;
54197;SDS011;40105;52.366;17.000;2022-11-03T10:43:09;14.70;;;5.00;;
54197;SDS011;40105;52.366;17.000;2022-11-03T10:46:37;15.77;;;4.78;;
54197;SDS011;40105;52.366;17.000;2022-11-03T10:50:07;12.00;;;4.68;;
54197;SDS011;40105;52.366;17.000;2022-11-03T10:53:42;11.68;;;3.83;;
54197;SDS011;40105;52.366;17.000;2022-11-03T10:57:06;18.13;;;3.72;;
54197;SDS011;40105;52.366;17.000;2022-11-03T11:00:30;21.02;;;4.45;;
54197;SDS011;40105;52.366;17.000;2022-11-03T11:03:54;12.57;;;4.90;;
54197;SDS011;40105;52.366;17.000;2022-11-03T11:07:21;13.40;;;4.05;;
54197;SDS011;40105;52.366;17.000;2022-11-03T11:10:47;8.77;;;2.83;;
54197;SDS011;40105;52.366;17.000;2022-11-03T11:18:03;17.63;;;3.10;;
54197;SDS011;40105;52.366;17.000;2022-11-03T11:28:29;8.20;;;2.65;;
54197;SDS011;40105;52.366;17.000;2022-11-03T11:31:53;15.48;;;3.05;;
54197;SDS011;40105;52.366;17.000;2022-11-03T11:42:15;14.50;;;3.22;;
54197;SDS011;40105;52.366;17.000;2022-11-03T11:53:36;11.10;;;3.05;;
54197;SDS011;40105;52.366;17.000;2022-11-03T11:57:01;16.27;;;3.50;;
54197;SDS011;40105;52.366;17.000;2022-11-03T12:00:27;10.25;;;2.78;;
54197;SDS011;40105;52.366;17.000;2022-11-03T12:03:53;13.98;;;2.08;;
54197;SDS011;40105;52.366;17.000;2022-11-03T12:07:30;17.98;;;2.33;;
54197;SDS011;40105;52.366;17.000;2022-11-03T12:10:56;10.85;;;2.25;;
54197;SDS011;40105;52.366;17.000;2022-11-03T12:18:40;10.88;;;2.38;;
54197;SDS011;40105;52.366;17.000;2022-11-03T12:22:06;12.43;;;3.40;;
54197;SDS011;40105;52.366;17.000;2022-11-03T12:25:39;12.88;;;2.30;;
54197;SDS011;40105;52.366;17.000;2022-11-03T12:29:06;5.40;;;2.08;;
54197;SDS011;40105;52.366;17.000;2022-11-03T12:32:32;9.68;;;1.85;;
54197;SDS011;40105;52.366;17.000;2022-11-03T12:35:56;5.88;;;2.10;;
54197;SDS011;40105;52.366;17.000;2022-11-03T12:39:20;11.73;;;2.95;;
54197;SDS011;40105;52.366;17.000;2022-11-03T12:42:44;13.30;;;2.45;;
54197;SDS011;40105;52.366;17.000;2022-11-03T12:46:08;11.63;;;2.42;;
54197;SDS011;40105;52.366;17.000;2022-11-03T12:49:32;12.68;;;2.47;;
54197;SDS011;40105;52.366;17.000;2022-11-03T12:52:56;9.57;;;2.10;;
54197;SDS011;40105;52.366;17.000;2022-11-03T12:56:20;3.92;;;1.55;;
54197;SDS011;40105;52.366;17.000;2022-11-03T12:59:44;8.75;;;2.45;;
54197;SDS011;40105;52.366;17.000;2022-11-03T13:03:08;10.13;;;2.53;;
54197;SDS011;40105;52.366;17.000;2022-11-03T13:06:32;12.52;;;2.55;;
54197;SDS011;40105;52.366;17.000;2022-11-03T13:09:56;5.40;;;1.67;;
54197;SDS011;40105;52.366;17.000;2022-11-03T13:13:19;5.55;;;1.73;;
54197;SDS011;40105;52.366;17.000;2022-11-03T13:16:43;10.48;;;2.38;;
54197;SDS011;40105;52.366;17.000;2022-11-03T13:20:07;8.25;;;3.17;;
54197;SDS011;40105;52.366;17.000;2022-11-03T13:23:31;4.85;;;1.80;;
54197;SDS011;40105;52.366;17.000;2022-11-03T13:26:55;15.88;;;2.85;;
54197;SDS011;40105;52.366;17.000;2022-11-03T13:30:20;8.35;;;2.33;;
54197;SDS011;40105;52.366;17.000;2022-11-03T13:33:43;3.38;;;1.85;;
54197;SDS011;40105;52.366;17.000;2022-11-03T13:37:07;11.88;;;2.08;;
54197;SDS011;40105;52.366;17.000;2022-11-03T13:40:31;20.80;;;2.35;;
54197;SDS011;40105;52.366;17.000;2022-11-03T13:43:55;9.38;;;2.10;;
54197;SDS011;40105;52.366;17.000;2022-11-03T13:47:20;15.80;;;3.22;;
54197;SDS011;40105;52.366;17.000;2022-11-03T13:50:44;11.88;;;2.92;;
54197;SDS011;40105;52.366;17.000;2022-11-03T13:54:08;13.27;;;2.92;;
54197;SDS011;40105;52.366;17.000;2022-11-03T13:57:33;14.25;;;2.97;;
54197;SDS011;40105;52.366;17.000;2022-11-03T14:00:57;8.50;;;2.70;;
54197;SDS011;40105;52.366;17.000;2022-11-03T14:04:21;8.90;;;2.78;;
54197;SDS011;40105;52.366;17.000;2022-11-03T14:07:44;11.70;;;2.58;;
54197;SDS011;40105;52.366;17.000;2022-11-03T14:11:08;19.17;;;4.65;;
54197;SDS011;40105;52.366;17.000;2022-11-03T14:18:14;10.02;;;2.88;;
54197;SDS011;40105;52.366;17.000;2022-11-03T14:21:38;6.63;;;2.97;;
54197;SDS011;40105;52.366;17.000;2022-11-03T14:25:02;14.20;;;3.88;;
54197;SDS011;40105;52.366;17.000;2022-11-03T14:28:26;11.13;;;3.85;;
54197;SDS011;40105;52.366;17.000;2022-11-03T14:31:51;14.25;;;3.90;;
54197;SDS011;40105;52.366;17.000;2022-11-03T14:35:16;13.20;;;4.15;;
54197;SDS011;40105;52.366;17.000;2022-11-03T14:38:40;23.73;;;4.60;;
54197;SDS011;40105;52.366;17.000;2022-11-03T14:42:12;18.98;;;4.20;;
54197;SDS011;40105;52.366;17.000;2022-11-03T14:45:36;12.00;;;3.97;;
54197;SDS011;40105;52.366;17.000;2022-11-03T14:49:00;16.38;;;5.05;;
54197;SDS011;40105;52.366;17.000;2022-11-03T14:52:24;15.18;;;4.15;;
54197;SDS011;40105;52.366;17.000;2022-11-03T14:55:48;14.60;;;4.63;;
54197;SDS011;40105;52.366;17.000;2022-11-03T14:59:12;13.05;;;4.20;;
54197;SDS011;40105;52.366;17.000;2022-11-03T15:02:37;18.77;;;5.25;;
54197;SDS011;40105;52.366;17.000;2022-11-03T15:06:00;12.25;;;4.32;;
54197;SDS011;40105;52.366;17.000;2022-11-03T15:09:24;17.45;;;5.03;;
54197;SDS011;40105;52.366;17.000;2022-11-03T15:12:48;11.32;;;4.22;;
54197;SDS011;40105;52.366;17.000;2022-11-03T15:16:12;14.85;;;4.88;;
54197;SDS011;40105;52.366;17.000;2022-11-03T15:19:36;15.57;;;5.72;;
54197;SDS011;40105;52.366;17.000;2022-11-03T15:23:03;18.63;;;5.55;;
54197;SDS011;40105;52.366;17.000;2022-11-03T15:26:27;18.55;;;6.72;;
54197;SDS011;40105;52.366;17.000;2022-11-03T15:29:51;16.27;;;5.78;;
54197;SDS011;40105;52.366;17.000;2022-11-03T15:33:15;20.23;;;6.57;;
54197;SDS011;40105;52.366;17.000;2022-11-03T15:36:39;18.95;;;6.72;;
54197;SDS011;40105;52.366;17.000;2022-11-03T15:40:03;69.53;;;7.50;;
54197;SDS011;40105;52.366;17.000;2022-11-03T15:43:48;24.00;;;6.25;;
54197;SDS011;40105;52.366;17.000;2022-11-03T15:47:12;21.35;;;6.97;;
54197;SDS011;40105;52.366;17.000;2022-11-03T15:50:35;24.58;;;7.93;;
54197;SDS011;40105;52.366;17.000;2022-11-03T15:53:59;25.50;;;6.15;;
54197;SDS011;40105;52.366;17.000;2022-11-03T15:57:23;14.57;;;5.93;;
54197;SDS011;40105;52.366;17.000;2022-11-03T16:00:47;26.10;;;6.25;;
54197;SDS011;40105;52.366;17.000;2022-11-03T16:04:11;22.42;;;6.55;;
54197;SDS011;40105;52.366;17.000;2022-11-03T16:07:35;15.93;;;6.57;;
54197;SDS011;40105;52.366;17.000;2022-11-03T16:10:58;22.95;;;7.38;;
54197;SDS011;40105;52.366;17.000;2022-11-03T16:14:22;26.35;;;6.90;;
54197;SDS011;40105;52.366;17.000;2022-11-03T16:17:46;20.48;;;7.53;;
54197;SDS011;40105;52.366;17.000;2022-11-03T16:21:10;18.98;;;6.90;;
54197;SDS011;40105;52.366;17.000;2022-11-03T16:24:34;24.02;;;6.95;;
54197;SDS011;40105;52.366;17.000;2022-11-03T16:27:58;24.05;;;6.07;;
54197;SDS011;40105;52.366;17.000;2022-11-03T16:31:22;15.75;;;6.38;;
54197;SDS011;40105;52.366;17.000;2022-11-03T16:34:46;17.95;;;6.97;;
54197;SDS011;40105;52.366;17.000;2022-11-03T16:38:10;13.98;;;6.82;;
54197;SDS011;40105;52.366;17.000;2022-11-03T16:41:34;23.95;;;10.68;;
54197;SDS011;40105;52.366;17.000;2022-11-03T16:45:02;28.65;;;14.20;;
54197;SDS011;40105;52.366;17.000;2022-11-03T16:48:26;61.13;;;19.70;;
54197;SDS011;40105;52.366;17.000;2022-11-03T16:51:50;51.33;;;12.90;;
54197;SDS011;40105;52.366;17.000;2022-11-03T16:55:14;44.72;;;10.85;;
54197;SDS011;40105;52.366;17.000;2022-11-03T16:58:38;40.45;;;12.30;;
54197;SDS011;40105;52.366;17.000;2022-11-03T17:02:03;45.35;;;11.32;;
54197;SDS011;40105;52.366;17.000;2022-11-03T17:05:27;30.23;;;7.18;;
54197;SDS011;40105;52.366;17.000;2022-11-03T17:08:51;28.63;;;9.30;;
54197;SDS011;40105;52.366;17.000;2022-11-03T17:12:14;33.83;;;8.45;;
54197;SDS011;40105;52.366;17.000;2022-11-03T17:15:38;33.05;;;10.45;;
54197;SDS011;40105;52.366;17.000;2022-11-03T17:19:02;20.63;;;7.88;;
54197;SDS011;40105;52.366;17.000;2022-11-03T17:22:26;43.28;;;28.00;;
54197;SDS011;40105;52.366;17.000;2022-11-03T17:25:50;164.23;;;39.55;;
54197;SDS011;40105;52.366;17.000;2022-11-03T17:29:16;48.13;;;12.88;;
54197;SDS011;40105;52.366;17.000;2022-11-03T17:32:49;20.08;;;8.88;;
54197;SDS011;40105;52.366;17.000;2022-11-03T17:36:13;27.50;;;7.82;;
54197;SDS011;40105;52.366;17.000;2022-11-03T17:39:37;21.52;;;8.23;;
54197;SDS011;40105;52.366;17.000;2022-11-03T17:43:01;31.98;;;10.75;;
54197;SDS011;40105;52.366;17.000;2022-11-03T17:46:26;34.55;;;8.85;;
54197;SDS011;40105;52.366;17.000;2022-11-03T17:49:50;38.00;;;9.93;;
54197;SDS011;40105;52.366;17.000;2022-11-03T17:53:19;31.95;;;9.98;;
54197;SDS011;40105;52.366;17.000;2022-11-03T17:56:44;39.97;;;12.80;;
54197;SDS011;40105;52.366;17.000;2022-11-03T18:00:15;37.00;;;13.48;;
54197;SDS011;40105;52.366;17.000;2022-11-03T18:03:44;58.47;;;16.05;;
54197;SDS011;40105;52.366;17.000;2022-11-03T18:07:14;32.38;;;10.80;;
54197;SDS011;40105;52.366;17.000;2022-11-03T18:10:42;49.42;;;15.00;;
54197;SDS011;40105;52.366;17.000;2022-11-03T18:14:26;27.02;;;9.27;;
54197;SDS011;40105;52.366;17.000;2022-11-03T18:17:51;38.00;;;11.75;;
54197;SDS011;40105;52.366;17.000;2022-11-03T18:21:16;32.72;;;10.75;;
54197;SDS011;40105;52.366;17.000;2022-11-03T18:24:40;21.27;;;7.03;;
54197;SDS011;40105;52.366;17.000;2022-11-03T18:28:04;57.15;;;18.13;;
54197;SDS011;40105;52.366;17.000;2022-11-03T18:34:54;41.30;;;16.08;;
54197;SDS011;40105;52.366;17.000;2022-11-03T18:38:19;26.33;;;10.07;;
54197;SDS011;40105;52.366;17.000;2022-11-03T18:41:46;25.10;;;8.07;;
54197;SDS011;40105;52.366;17.000;2022-11-03T18:45:10;24.05;;;8.80;;
54197;SDS011;40105;52.366;17.000;2022-11-03T18:48:34;17.15;;;7.05;;
54197;SDS011;40105;52.366;17.000;2022-11-03T18:51:59;19.33;;;6.88;;
54197;SDS011;40105;52.366;17.000;2022-11-03T18:55:23;28.48;;;8.00;;
54197;SDS011;40105;52.366;17.000;2022-11-03T18:58:48;14.73;;;7.03;;
54197;SDS011;40105;52.366;17.000;2022-11-03T19:02:17;27.05;;;8.77;;
54197;SDS011;40105;52.366;17.000;2022-11-03T19:05:42;34.78;;;8.73;;
54197;SDS011;40105;52.366;17.000;2022-11-03T19:09:07;29.73;;;8.90;;
54197;SDS011;40105;52.366;17.000;2022-11-03T19:12:32;35.55;;;12.15;;
54197;SDS011;40105;52.366;17.000;2022-11-03T19:15:58;39.35;;;10.85;;
54197;SDS011;40105;52.366;17.000;2022-11-03T19:19:23;27.60;;;8.77;;
54197;SDS011;40105;52.366;17.000;2022-11-03T19:22:48;26.58;;;10.70;;
54197;SDS011;40105;52.366;17.000;2022-11-03T19:26:13;21.58;;;10.10;;
54197;SDS011;40105;52.366;17.000;2022-11-03T19:29:42;22.05;;;8.07;;
54197;SDS011;40105;52.366;17.000;2022-11-03T19:33:08;30.40;;;9.80;;
54197;SDS011;40105;52.366;17.000;2022-11-03T19:36:36;25.83;;;9.32;;
54197;SDS011;40105;52.366;17.000;2022-11-03T19:40:00;24.15;;;8.77;;
54197;SDS011;40105;52.366;17.000;2022-11-03T19:43:56;23.92;;;9.73;;
54197;SDS011;40105;52.366;17.000;2022-11-03T19:47:21;25.90;;;8.50;;
54197;SDS011;40105;52.366;17.000;2022-11-03T19:50:46;28.05;;;10.65;;
54197;SDS011;40105;52.366;17.000;2022-11-03T19:54:17;24.08;;;10.05;;
54197;SDS011;40105;52.366;17.000;2022-11-03T19:57:42;26.02;;;9.73;;
54197;SDS011;40105;52.366;17.000;2022-11-03T20:01:06;23.17;;;8.27;;
54197;SDS011;40105;52.366;17.000;2022-11-03T20:04:30;25.58;;;10.77;;
54197;SDS011;40105;52.366;17.000;2022-11-03T20:07:55;21.15;;;9.23;;
54197;SDS011;40105;52.366;17.000;2022-11-03T20:11:19;28.58;;;9.15;;
54197;SDS011;40105;52.366;17.000;2022-11-03T20:14:43;28.25;;;11.05;;
54197;SDS011;40105;52.366;17.000;2022-11-03T20:18:09;33.65;;;9.50;;
54197;SDS011;40105;52.366;17.000;2022-11-03T20:21:32;38.60;;;10.77;;
54197;SDS011;40105;52.366;17.000;2022-11-03T20:24:57;23.45;;;9.68;;
54197;SDS011;40105;52.366;17.000;2022-11-03T20:28:27;23.58;;;10.90;;
54197;SDS011;40105;52.366;17.000;2022-11-03T20:31:51;28.15;;;8.82;;
54197;SDS011;40105;52.366;17.000;2022-11-03T20:35:17;22.02;;;9.55;;
54197;SDS011;40105;52.366;17.000;2022-11-03T20:38:43;22.10;;;9.23;;
54197;SDS011;40105;52.366;17.000;2022-11-03T20:42:22;30.13;;;10.43;;
54197;SDS011;40105;52.366;17.000;2022-11-03T20:45:48;38.78;;;9.75;;
54197;SDS011;40105;52.366;17.000;2022-11-03T20:49:12;32.22;;;10.45;;
54197;SDS011;40105;52.366;17.000;2022-11-03T20:52:37;27.30;;;9.82;;
54197;SDS011;40105;52.366;17.000;2022-11-03T20:56:01;34.10;;;10.13;;
54197;SDS011;40105;52.366;17.000;2022-11-03T20:59:25;25.85;;;10.02;;
54197;SDS011;40105;52.366;17.000;2022-11-03T21:02:53;19.27;;;9.43;;
54197;SDS011;40105;52.366;17.000;2022-11-03T21:06:18;25.58;;;10.00;;
54197;SDS011;40105;52.366;17.000;2022-11-03T21:09:41;34.83;;;11.13;;
54197;SDS011;40105;52.366;17.000;2022-11-03T21:13:23;25.20;;;11.45;;
54197;SDS011;40105;52.366;17.000;2022-11-03T21:16:49;35.55;;;10.82;;
54197;SDS011;40105;52.366;17.000;2022-11-03T21:20:51;30.52;;;11.38;;